sensor_id;sensor_type;location;lat;lon;timestamp;P1;durP1;ratioP1;P2;durP2;ratioP2
16660;SDS011;8444;52.012;5.048;2023-01-09T00:01:26;0.80;;;0.63;;
16660;SDS011;8444;52.012;5.048;2023-01-09T00:03:52;1.43;;;0.70;;
16660;SDS011;8444;52.012;5.048;2023-01-09T00:06:17;2.43;;;1.17;;
16660;SDS011;8444;52.012;5.048;2023-01-09T00:08:42;1.90;;;1.00;;
16660;SDS011;8444;52.012;5.048;2023-01-09T00:11:07;3.27;;;1.10;;
16660;SDS011;8444;52.012;5.048;2023-01-09T00:13:33;2.70;;;1.00;;
16660;SDS011;8444;52.012;5.048;2023-01-09T00:15:58;3.57;;;0.70;;
16660;SDS011;8444;52.012;5.048;2023-01-09T00:18:23;1.47;;;0.97;;
16660;SDS011;8444;52.012;5.048;2023-01-09T00:20:49;5.30;;;1.00;;
16660;SDS011;8444;52.012;5.048;2023-01-09T00:23:14;2.47;;;1.00;;
16660;SDS011;8444;52.012;5.048;2023-01-09T00:25:39;4.33;;;1.40;;
16660;SDS011;8444;52.012;5.048;2023-01-09T00:28:04;3.40;;;1.20;;
16660;SDS011;8444;52.012;5.048;2023-01-09T00:30:30;2.33;;;0.97;;
16660;SDS011;8444;52.012;5.048;2023-01-09T00:32:55;1.90;;;1.03;;
16660;SDS011;8444;52.012;5.048;2023-01-09T00:35:21;3.23;;;1.27;;
16660;SDS011;8444;52.012;5.048;2023-01-09T00:37:47;3.53;;;1.13;;
16660;SDS011;8444;52.012;5.048;2023-01-09T00:40:13;2.70;;;2.00;;
16660;SDS011;8444;52.012;5.048;2023-01-09T00:42:38;3.57;;;1.40;;
16660;SDS011;8444;52.012;5.048;2023-01-09T00:45:06;2.37;;;1.13;;
16660;SDS011;8444;52.012;5.048;2023-01-09T00:47:34;3.70;;;1.00;;
16660;SDS011;8444;52.012;5.048;2023-01-09T00:50:02;5.13;;;1.50;;
16660;SDS011;8444;52.012;5.048;2023-01-09T00:52:29;1.50;;;0.80;;
16660;SDS011;8444;52.012;5.048;2023-01-09T00:54:55;4.93;;;1.40;;
16660;SDS011;8444;52.012;5.048;2023-01-09T00:57:21;3.70;;;1.30;;
16660;SDS011;8444;52.012;5.048;2023-01-09T00:59:46;3.97;;;1.37;;
16660;SDS011;8444;52.012;5.048;2023-01-09T01:02:12;2.07;;;0.93;;
16660;SDS011;8444;52.012;5.048;2023-01-09T01:04:37;2.00;;;1.30;;
16660;SDS011;8444;52.012;5.048;2023-01-09T01:07:21;3.70;;;1.20;;
16660;SDS011;8444;52.012;5.048;2023-01-09T01:12:30;2.20;;;1.10;;
16660;SDS011;8444;52.012;5.048;2023-01-09T01:14:55;2.90;;;0.90;;
16660;SDS011;8444;52.012;5.048;2023-01-09T01:17:21;3.43;;;1.17;;
16660;SDS011;8444;52.012;5.048;2023-01-09T01:19:46;2.63;;;1.00;;
16660;SDS011;8444;52.012;5.048;2023-01-09T01:22:11;2.00;;;1.00;;
16660;SDS011;8444;52.012;5.048;2023-01-09T01:24:36;3.77;;;1.20;;
16660;SDS011;8444;52.012;5.048;2023-01-09T01:27:01;6.27;;;1.30;;
16660;SDS011;8444;52.012;5.048;2023-01-09T01:29:27;3.30;;;1.07;;
16660;SDS011;8444;52.012;5.048;2023-01-09T01:31:52;2.37;;;1.30;;
16660;SDS011;8444;52.012;5.048;2023-01-09T01:34:18;4.83;;;1.63;;
16660;SDS011;8444;52.012;5.048;2023-01-09T01:36:43;2.97;;;1.40;;
16660;SDS011;8444;52.012;5.048;2023-01-09T01:39:08;4.23;;;1.73;;
16660;SDS011;8444;52.012;5.048;2023-01-09T01:41:33;3.43;;;1.40;;
16660;SDS011;8444;52.012;5.048;2023-01-09T01:44:03;2.83;;;1.43;;
16660;SDS011;8444;52.012;5.048;2023-01-09T01:46:29;6.00;;;1.60;;
16660;SDS011;8444;52.012;5.048;2023-01-09T01:48:57;3.13;;;1.93;;
16660;SDS011;8444;52.012;5.048;2023-01-09T01:51:23;8.53;;;1.80;;
16660;SDS011;8444;52.012;5.048;2023-01-09T01:53:51;4.70;;;2.47;;
16660;SDS011;8444;52.012;5.048;2023-01-09T01:56:27;4.93;;;2.57;;
16660;SDS011;8444;52.012;5.048;2023-01-09T01:58:58;4.87;;;3.17;;
16660;SDS011;8444;52.012;5.048;2023-01-09T02:01:25;5.40;;;3.17;;
16660;SDS011;8444;52.012;5.048;2023-01-09T02:03:52;4.37;;;3.37;;
16660;SDS011;8444;52.012;5.048;2023-01-09T02:06:18;6.97;;;4.00;;
16660;SDS011;8444;52.012;5.048;2023-01-09T02:08:43;4.63;;;3.37;;
16660;SDS011;8444;52.012;5.048;2023-01-09T02:11:09;7.70;;;4.17;;
16660;SDS011;8444;52.012;5.048;2023-01-09T02:13:37;4.67;;;4.10;;
16660;SDS011;8444;52.012;5.048;2023-01-09T02:16:18;9.53;;;4.20;;
16660;SDS011;8444;52.012;5.048;2023-01-09T02:18:49;6.93;;;4.77;;
16660;SDS011;8444;52.012;5.048;2023-01-09T02:36:41;6.87;;;4.00;;
16660;SDS011;8444;52.012;5.048;2023-01-09T02:39:20;8.33;;;3.87;;
16660;SDS011;8444;52.012;5.048;2023-01-09T02:42:31;5.53;;;3.53;;
16660;SDS011;8444;52.012;5.048;2023-01-09T02:44:32;5.87;;;4.03;;
16660;SDS011;8444;52.012;5.048;2023-01-09T02:47:02;13.00;;;5.13;;
16660;SDS011;8444;52.012;5.048;2023-01-09T02:49:28;5.17;;;4.07;;
16660;SDS011;8444;52.012;5.048;2023-01-09T02:52:41;5.13;;;3.80;;
16660;SDS011;8444;52.012;5.048;2023-01-09T03:00:08;7.60;;;4.27;;
16660;SDS011;8444;52.012;5.048;2023-01-09T03:02:41;6.67;;;3.93;;
16660;SDS011;8444;52.012;5.048;2023-01-09T03:05:21;6.80;;;3.53;;
16660;SDS011;8444;52.012;5.048;2023-01-09T03:08:07;5.10;;;4.20;;
16660;SDS011;8444;52.012;5.048;2023-01-09T03:10:38;8.07;;;4.27;;
16660;SDS011;8444;52.012;5.048;2023-01-09T03:13:04;5.13;;;3.70;;
16660;SDS011;8444;52.012;5.048;2023-01-09T03:15:33;5.93;;;3.70;;
16660;SDS011;8444;52.012;5.048;2023-01-09T03:18:00;6.10;;;3.40;;
16660;SDS011;8444;52.012;5.048;2023-01-09T03:20:27;5.80;;;3.90;;
16660;SDS011;8444;52.012;5.048;2023-01-09T03:22:55;9.17;;;4.73;;
16660;SDS011;8444;52.012;5.048;2023-01-09T03:25:20;5.33;;;3.47;;
16660;SDS011;8444;52.012;5.048;2023-01-09T03:27:46;6.53;;;3.50;;
16660;SDS011;8444;52.012;5.048;2023-01-09T03:30:11;4.43;;;3.43;;
16660;SDS011;8444;52.012;5.048;2023-01-09T03:32:36;6.10;;;3.77;;
16660;SDS011;8444;52.012;5.048;2023-01-09T03:35:02;6.00;;;3.13;;
16660;SDS011;8444;52.012;5.048;2023-01-09T03:37:27;6.47;;;3.27;;
16660;SDS011;8444;52.012;5.048;2023-01-09T03:39:52;4.63;;;2.77;;
16660;SDS011;8444;52.012;5.048;2023-01-09T03:42:17;5.40;;;2.90;;
16660;SDS011;8444;52.012;5.048;2023-01-09T03:44:42;6.90;;;2.90;;
16660;SDS011;8444;52.012;5.048;2023-01-09T03:47:08;4.20;;;2.97;;
16660;SDS011;8444;52.012;5.048;2023-01-09T03:49:33;5.80;;;2.83;;
16660;SDS011;8444;52.012;5.048;2023-01-09T03:51:58;7.53;;;2.93;;
16660;SDS011;8444;52.012;5.048;2023-01-09T03:54:23;6.80;;;2.83;;
16660;SDS011;8444;52.012;5.048;2023-01-09T03:56:49;6.67;;;3.23;;
16660;SDS011;8444;52.012;5.048;2023-01-09T03:59:14;5.23;;;3.03;;
16660;SDS011;8444;52.012;5.048;2023-01-09T04:01:39;7.27;;;3.27;;
16660;SDS011;8444;52.012;5.048;2023-01-09T04:04:04;6.00;;;2.63;;
16660;SDS011;8444;52.012;5.048;2023-01-09T04:06:29;5.23;;;3.00;;
16660;SDS011;8444;52.012;5.048;2023-01-09T04:08:55;8.60;;;2.37;;
16660;SDS011;8444;52.012;5.048;2023-01-09T04:11:20;4.77;;;2.87;;
16660;SDS011;8444;52.012;5.048;2023-01-09T04:13:46;6.83;;;2.67;;
16660;SDS011;8444;52.012;5.048;2023-01-09T04:16:11;5.23;;;3.07;;
16660;SDS011;8444;52.012;5.048;2023-01-09T04:18:36;6.20;;;3.00;;
16660;SDS011;8444;52.012;5.048;2023-01-09T04:21:02;5.80;;;2.40;;
16660;SDS011;8444;52.012;5.048;2023-01-09T04:23:27;7.77;;;3.03;;
16660;SDS011;8444;52.012;5.048;2023-01-09T04:25:52;9.03;;;2.50;;
16660;SDS011;8444;52.012;5.048;2023-01-09T04:28:17;6.13;;;2.53;;
16660;SDS011;8444;52.012;5.048;2023-01-09T04:30:43;6.57;;;2.83;;
16660;SDS011;8444;52.012;5.048;2023-01-09T04:33:08;4.20;;;2.47;;
16660;SDS011;8444;52.012;5.048;2023-01-09T04:35:33;4.50;;;2.20;;
16660;SDS011;8444;52.012;5.048;2023-01-09T04:37:59;8.17;;;3.20;;
16660;SDS011;8444;52.012;5.048;2023-01-09T04:40:24;4.90;;;2.10;;
16660;SDS011;8444;52.012;5.048;2023-01-09T04:42:50;6.43;;;2.50;;
16660;SDS011;8444;52.012;5.048;2023-01-09T04:45:15;5.37;;;2.83;;
16660;SDS011;8444;52.012;5.048;2023-01-09T04:47:41;5.30;;;2.40;;
16660;SDS011;8444;52.012;5.048;2023-01-09T04:50:06;7.13;;;2.33;;
16660;SDS011;8444;52.012;5.048;2023-01-09T04:52:32;8.60;;;2.30;;
16660;SDS011;8444;52.012;5.048;2023-01-09T04:54:57;6.30;;;2.13;;
16660;SDS011;8444;52.012;5.048;2023-01-09T04:57:22;3.27;;;2.23;;
16660;SDS011;8444;52.012;5.048;2023-01-09T04:59:47;2.93;;;1.47;;
16660;SDS011;8444;52.012;5.048;2023-01-09T05:02:13;5.80;;;1.97;;
16660;SDS011;8444;52.012;5.048;2023-01-09T05:04:38;4.37;;;2.00;;
16660;SDS011;8444;52.012;5.048;2023-01-09T05:07:03;3.57;;;1.77;;
16660;SDS011;8444;52.012;5.048;2023-01-09T05:09:28;8.10;;;2.73;;
16660;SDS011;8444;52.012;5.048;2023-01-09T05:11:54;6.77;;;1.90;;
16660;SDS011;8444;52.012;5.048;2023-01-09T05:14:19;3.87;;;1.80;;
16660;SDS011;8444;52.012;5.048;2023-01-09T05:16:44;7.83;;;1.93;;
16660;SDS011;8444;52.012;5.048;2023-01-09T05:19:09;8.13;;;1.90;;
16660;SDS011;8444;52.012;5.048;2023-01-09T05:21:34;4.07;;;1.50;;
16660;SDS011;8444;52.012;5.048;2023-01-09T05:24:00;4.90;;;1.80;;
16660;SDS011;8444;52.012;5.048;2023-01-09T05:26:25;2.60;;;1.50;;
16660;SDS011;8444;52.012;5.048;2023-01-09T05:28:51;3.70;;;1.50;;
16660;SDS011;8444;52.012;5.048;2023-01-09T05:31:16;2.10;;;1.53;;
16660;SDS011;8444;52.012;5.048;2023-01-09T05:33:42;7.33;;;1.73;;
16660;SDS011;8444;52.012;5.048;2023-01-09T05:36:07;3.07;;;1.43;;
16660;SDS011;8444;52.012;5.048;2023-01-09T05:38:32;4.17;;;1.53;;
16660;SDS011;8444;52.012;5.048;2023-01-09T05:40:57;6.40;;;1.90;;
16660;SDS011;8444;52.012;5.048;2023-01-09T05:43:23;6.43;;;1.93;;
16660;SDS011;8444;52.012;5.048;2023-01-09T05:45:48;7.60;;;1.50;;
16660;SDS011;8444;52.012;5.048;2023-01-09T05:48:13;11.50;;;2.13;;
16660;SDS011;8444;52.012;5.048;2023-01-09T05:50:38;4.93;;;1.50;;
16660;SDS011;8444;52.012;5.048;2023-01-09T05:53:03;5.50;;;1.80;;
16660;SDS011;8444;52.012;5.048;2023-01-09T05:55:30;4.77;;;2.07;;
16660;SDS011;8444;52.012;5.048;2023-01-09T05:57:55;3.77;;;1.83;;
16660;SDS011;8444;52.012;5.048;2023-01-09T06:00:20;4.50;;;1.57;;
16660;SDS011;8444;52.012;5.048;2023-01-09T06:02:46;4.00;;;1.47;;
16660;SDS011;8444;52.012;5.048;2023-01-09T06:05:11;3.17;;;1.53;;
16660;SDS011;8444;52.012;5.048;2023-01-09T06:07:36;5.37;;;1.90;;
16660;SDS011;8444;52.012;5.048;2023-01-09T06:10:04;5.37;;;1.70;;
16660;SDS011;8444;52.012;5.048;2023-01-09T06:12:29;4.47;;;1.50;;
16660;SDS011;8444;52.012;5.048;2023-01-09T06:14:55;6.97;;;1.80;;
16660;SDS011;8444;52.012;5.048;2023-01-09T06:17:20;6.67;;;1.80;;
16660;SDS011;8444;52.012;5.048;2023-01-09T06:19:45;4.70;;;2.20;;
16660;SDS011;8444;52.012;5.048;2023-01-09T06:22:10;6.70;;;1.80;;
16660;SDS011;8444;52.012;5.048;2023-01-09T06:24:36;7.80;;;1.70;;
16660;SDS011;8444;52.012;5.048;2023-01-09T06:27:01;5.00;;;1.70;;
16660;SDS011;8444;52.012;5.048;2023-01-09T06:29:26;6.10;;;1.97;;
16660;SDS011;8444;52.012;5.048;2023-01-09T06:31:51;4.57;;;1.60;;
16660;SDS011;8444;52.012;5.048;2023-01-09T06:34:16;5.07;;;1.87;;
16660;SDS011;8444;52.012;5.048;2023-01-09T06:36:41;6.87;;;2.07;;
16660;SDS011;8444;52.012;5.048;2023-01-09T06:39:07;5.83;;;1.97;;
16660;SDS011;8444;52.012;5.048;2023-01-09T06:41:32;4.67;;;1.80;;
16660;SDS011;8444;52.012;5.048;2023-01-09T06:43:57;5.67;;;3.47;;
16660;SDS011;8444;52.012;5.048;2023-01-09T06:46:22;8.43;;;2.17;;
16660;SDS011;8444;52.012;5.048;2023-01-09T06:48:47;6.83;;;1.87;;
16660;SDS011;8444;52.012;5.048;2023-01-09T06:51:13;5.93;;;2.10;;
16660;SDS011;8444;52.012;5.048;2023-01-09T06:53:38;5.47;;;2.10;;
16660;SDS011;8444;52.012;5.048;2023-01-09T06:56:03;7.60;;;2.30;;
16660;SDS011;8444;52.012;5.048;2023-01-09T06:58:29;8.97;;;3.00;;
16660;SDS011;8444;52.012;5.048;2023-01-09T07:00:54;7.00;;;2.83;;
16660;SDS011;8444;52.012;5.048;2023-01-09T07:03:20;6.87;;;2.50;;
16660;SDS011;8444;52.012;5.048;2023-01-09T07:05:46;8.20;;;3.03;;
16660;SDS011;8444;52.012;5.048;2023-01-09T07:08:12;6.70;;;2.83;;
16660;SDS011;8444;52.012;5.048;2023-01-09T07:10:39;8.33;;;3.20;;
16660;SDS011;8444;52.012;5.048;2023-01-09T07:13:04;4.40;;;3.10;;
16660;SDS011;8444;52.012;5.048;2023-01-09T07:15:29;5.40;;;2.70;;
16660;SDS011;8444;52.012;5.048;2023-01-09T07:17:54;6.77;;;2.53;;
16660;SDS011;8444;52.012;5.048;2023-01-09T07:20:19;6.40;;;3.40;;
16660;SDS011;8444;52.012;5.048;2023-01-09T07:22:45;6.40;;;3.47;;
16660;SDS011;8444;52.012;5.048;2023-01-09T07:25:10;6.97;;;2.90;;
16660;SDS011;8444;52.012;5.048;2023-01-09T07:27:35;4.30;;;3.40;;
16660;SDS011;8444;52.012;5.048;2023-01-09T07:30:01;5.93;;;3.50;;
16660;SDS011;8444;52.012;5.048;2023-01-09T07:32:26;6.03;;;2.97;;
16660;SDS011;8444;52.012;5.048;2023-01-09T07:34:51;6.20;;;2.80;;
16660;SDS011;8444;52.012;5.048;2023-01-09T07:37:17;3.43;;;2.30;;
16660;SDS011;8444;52.012;5.048;2023-01-09T07:39:42;3.73;;;2.03;;
16660;SDS011;8444;52.012;5.048;2023-01-09T07:42:08;3.03;;;1.50;;
16660;SDS011;8444;52.012;5.048;2023-01-09T07:44:33;1.77;;;0.90;;
16660;SDS011;8444;52.012;5.048;2023-01-09T07:46:58;1.47;;;0.70;;
16660;SDS011;8444;52.012;5.048;2023-01-09T07:49:23;5.50;;;1.03;;
16660;SDS011;8444;52.012;5.048;2023-01-09T07:51:49;1.57;;;0.70;;
16660;SDS011;8444;52.012;5.048;2023-01-09T07:54:14;0.63;;;0.53;;
16660;SDS011;8444;52.012;5.048;2023-01-09T07:56:39;2.63;;;0.80;;
16660;SDS011;8444;52.012;5.048;2023-01-09T07:59:04;3.77;;;0.53;;
16660;SDS011;8444;52.012;5.048;2023-01-09T08:01:30;1.43;;;0.73;;
16660;SDS011;8444;52.012;5.048;2023-01-09T08:03:55;3.80;;;1.30;;
16660;SDS011;8444;52.012;5.048;2023-01-09T08:06:20;0.90;;;0.60;;
16660;SDS011;8444;52.012;5.048;2023-01-09T08:08:45;1.90;;;0.50;;
16660;SDS011;8444;52.012;5.048;2023-01-09T08:11:10;1.70;;;0.80;;
16660;SDS011;8444;52.012;5.048;2023-01-09T08:13:36;2.40;;;0.80;;
16660;SDS011;8444;52.012;5.048;2023-01-09T08:16:01;2.23;;;0.60;;
16660;SDS011;8444;52.012;5.048;2023-01-09T08:18:26;2.50;;;0.93;;
16660;SDS011;8444;52.012;5.048;2023-01-09T08:20:51;1.67;;;0.83;;
16660;SDS011;8444;52.012;5.048;2023-01-09T08:23:16;5.67;;;1.17;;
16660;SDS011;8444;52.012;5.048;2023-01-09T08:25:42;1.80;;;1.20;;
16660;SDS011;8444;52.012;5.048;2023-01-09T08:28:07;4.50;;;1.30;;
16660;SDS011;8444;52.012;5.048;2023-01-09T08:30:33;2.53;;;1.00;;
16660;SDS011;8444;52.012;5.048;2023-01-09T08:32:58;1.47;;;1.07;;
16660;SDS011;8444;52.012;5.048;2023-01-09T08:35:24;2.40;;;1.73;;
16660;SDS011;8444;52.012;5.048;2023-01-09T08:37:49;6.30;;;2.70;;
16660;SDS011;8444;52.012;5.048;2023-01-09T08:40:14;6.10;;;1.80;;
16660;SDS011;8444;52.012;5.048;2023-01-09T08:42:40;4.63;;;1.90;;
16660;SDS011;8444;52.012;5.048;2023-01-09T08:45:26;2.53;;;1.60;;
16660;SDS011;8444;52.012;5.048;2023-01-09T08:48:10;3.67;;;1.97;;
16660;SDS011;8444;52.012;5.048;2023-01-09T08:50:35;6.47;;;1.73;;
16660;SDS011;8444;52.012;5.048;2023-01-09T08:53:00;3.70;;;1.70;;
16660;SDS011;8444;52.012;5.048;2023-01-09T08:55:25;4.77;;;1.30;;
16660;SDS011;8444;52.012;5.048;2023-01-09T08:57:51;5.77;;;2.40;;
16660;SDS011;8444;52.012;5.048;2023-01-09T09:00:17;5.33;;;1.53;;
16660;SDS011;8444;52.012;5.048;2023-01-09T09:02:42;6.83;;;1.30;;
16660;SDS011;8444;52.012;5.048;2023-01-09T09:05:08;5.53;;;1.60;;
16660;SDS011;8444;52.012;5.048;2023-01-09T09:07:33;3.10;;;1.10;;
16660;SDS011;8444;52.012;5.048;2023-01-09T09:09:58;6.63;;;1.23;;
16660;SDS011;8444;52.012;5.048;2023-01-09T09:12:23;12.30;;;1.73;;
16660;SDS011;8444;52.012;5.048;2023-01-09T09:14:50;5.90;;;1.67;;
16660;SDS011;8444;52.012;5.048;2023-01-09T09:17:33;4.37;;;1.43;;
16660;SDS011;8444;52.012;5.048;2023-01-09T09:19:59;9.50;;;2.00;;
16660;SDS011;8444;52.012;5.048;2023-01-09T09:22:24;18.57;;;3.37;;
16660;SDS011;8444;52.012;5.048;2023-01-09T09:24:49;8.07;;;3.37;;
16660;SDS011;8444;52.012;5.048;2023-01-09T09:27:14;9.63;;;1.47;;
16660;SDS011;8444;52.012;5.048;2023-01-09T09:29:40;9.70;;;1.63;;
16660;SDS011;8444;52.012;5.048;2023-01-09T09:32:05;9.83;;;2.10;;
16660;SDS011;8444;52.012;5.048;2023-01-09T09:34:30;11.53;;;2.93;;
16660;SDS011;8444;52.012;5.048;2023-01-09T09:36:55;14.10;;;3.10;;
16660;SDS011;8444;52.012;5.048;2023-01-09T09:39:21;15.70;;;3.80;;
16660;SDS011;8444;52.012;5.048;2023-01-09T09:47:10;4.07;;;1.40;;
16660;SDS011;8444;52.012;5.048;2023-01-09T09:49:48;7.00;;;1.73;;
16660;SDS011;8444;52.012;5.048;2023-01-09T09:52:42;14.43;;;2.83;;
16660;SDS011;8444;52.012;5.048;2023-01-09T09:55:04;6.30;;;1.40;;
16660;SDS011;8444;52.012;5.048;2023-01-09T09:57:35;3.13;;;1.13;;
16660;SDS011;8444;52.012;5.048;2023-01-09T10:00:02;8.17;;;1.50;;
16660;SDS011;8444;52.012;5.048;2023-01-09T10:02:29;5.40;;;1.53;;
16660;SDS011;8444;52.012;5.048;2023-01-09T10:05:39;8.30;;;1.50;;
16660;SDS011;8444;52.012;5.048;2023-01-09T10:07:49;4.50;;;1.30;;
16660;SDS011;8444;52.012;5.048;2023-01-09T10:10:32;8.07;;;1.73;;
16660;SDS011;8444;52.012;5.048;2023-01-09T10:12:58;4.23;;;1.70;;
16660;SDS011;8444;52.012;5.048;2023-01-09T10:15:27;13.37;;;1.83;;
16660;SDS011;8444;52.012;5.048;2023-01-09T10:17:58;6.83;;;1.73;;
16660;SDS011;8444;52.012;5.048;2023-01-09T10:20:32;6.03;;;1.07;;
16660;SDS011;8444;52.012;5.048;2023-01-09T10:25:28;2.90;;;1.20;;
16660;SDS011;8444;52.012;5.048;2023-01-09T10:33:01;7.37;;;1.27;;
16660;SDS011;8444;52.012;5.048;2023-01-09T10:38:05;7.70;;;3.37;;
16660;SDS011;8444;52.012;5.048;2023-01-09T10:40:38;4.77;;;1.20;;
16660;SDS011;8444;52.012;5.048;2023-01-09T10:43:08;10.20;;;2.23;;
16660;SDS011;8444;52.012;5.048;2023-01-09T10:45:38;7.77;;;2.03;;
16660;SDS011;8444;52.012;5.048;2023-01-09T10:48:19;12.07;;;4.00;;
16660;SDS011;8444;52.012;5.048;2023-01-09T10:50:46;7.00;;;1.23;;
16660;SDS011;8444;52.012;5.048;2023-01-09T10:53:20;5.50;;;1.07;;
16660;SDS011;8444;52.012;5.048;2023-01-09T10:55:46;3.33;;;1.43;;
16660;SDS011;8444;52.012;5.048;2023-01-09T10:58:13;4.37;;;1.43;;
16660;SDS011;8444;52.012;5.048;2023-01-09T11:00:38;5.47;;;1.13;;
16660;SDS011;8444;52.012;5.048;2023-01-09T11:03:04;3.20;;;1.00;;
16660;SDS011;8444;52.012;5.048;2023-01-09T11:05:29;7.00;;;1.50;;
16660;SDS011;8444;52.012;5.048;2023-01-09T11:10:46;11.23;;;1.90;;
16660;SDS011;8444;52.012;5.048;2023-01-09T11:13:13;7.93;;;1.80;;
16660;SDS011;8444;52.012;5.048;2023-01-09T11:15:39;6.50;;;2.33;;
16660;SDS011;8444;52.012;5.048;2023-01-09T11:18:21;7.57;;;1.97;;
16660;SDS011;8444;52.012;5.048;2023-01-09T11:20:48;9.33;;;2.10;;
16660;SDS011;8444;52.012;5.048;2023-01-09T11:23:24;8.97;;;2.83;;
16660;SDS011;8444;52.012;5.048;2023-01-09T11:25:53;8.90;;;2.20;;
16660;SDS011;8444;52.012;5.048;2023-01-09T11:28:19;14.40;;;2.50;;
16660;SDS011;8444;52.012;5.048;2023-01-09T11:30:57;9.23;;;2.10;;
16660;SDS011;8444;52.012;5.048;2023-01-09T11:33:24;7.93;;;1.80;;
16660;SDS011;8444;52.012;5.048;2023-01-09T11:35:54;10.07;;;2.10;;
16660;SDS011;8444;52.012;5.048;2023-01-09T11:38:20;8.50;;;1.57;;
16660;SDS011;8444;52.012;5.048;2023-01-09T11:40:49;11.43;;;1.87;;
16660;SDS011;8444;52.012;5.048;2023-01-09T11:43:19;7.63;;;2.00;;
16660;SDS011;8444;52.012;5.048;2023-01-09T11:45:47;8.00;;;1.97;;
16660;SDS011;8444;52.012;5.048;2023-01-09T11:48:30;4.80;;;1.57;;
16660;SDS011;8444;52.012;5.048;2023-01-09T11:50:57;5.97;;;1.80;;
16660;SDS011;8444;52.012;5.048;2023-01-09T11:53:22;7.47;;;1.90;;
16660;SDS011;8444;52.012;5.048;2023-01-09T11:56:00;6.37;;;1.50;;
16660;SDS011;8444;52.012;5.048;2023-01-09T11:58:27;7.43;;;1.60;;
16660;SDS011;8444;52.012;5.048;2023-01-09T12:08:15;5.70;;;1.70;;
16660;SDS011;8444;52.012;5.048;2023-01-09T12:21:10;4.87;;;2.10;;
16660;SDS011;8444;52.012;5.048;2023-01-09T12:23:48;9.57;;;2.17;;
16660;SDS011;8444;52.012;5.048;2023-01-09T12:26:27;6.63;;;2.00;;
16660;SDS011;8444;52.012;5.048;2023-01-09T12:36:34;5.73;;;1.67;;
16660;SDS011;8444;52.012;5.048;2023-01-09T12:39:07;7.73;;;1.73;;
16660;SDS011;8444;52.012;5.048;2023-01-09T12:41:39;8.80;;;2.40;;
16660;SDS011;8444;52.012;5.048;2023-01-09T12:54:23;7.13;;;1.80;;
16660;SDS011;8444;52.012;5.048;2023-01-09T12:59:20;8.73;;;2.10;;
16660;SDS011;8444;52.012;5.048;2023-01-09T13:01:49;4.53;;;1.40;;
16660;SDS011;8444;52.012;5.048;2023-01-09T13:04:18;8.60;;;1.40;;
16660;SDS011;8444;52.012;5.048;2023-01-09T13:06:48;7.57;;;2.00;;
16660;SDS011;8444;52.012;5.048;2023-01-09T13:11:45;5.37;;;1.80;;
16660;SDS011;8444;52.012;5.048;2023-01-09T13:16:56;9.30;;;4.00;;
16660;SDS011;8444;52.012;5.048;2023-01-09T13:21:47;6.00;;;1.53;;
16660;SDS011;8444;52.012;5.048;2023-01-09T13:24:22;8.57;;;1.70;;
16660;SDS011;8444;52.012;5.048;2023-01-09T13:26:49;5.40;;;1.47;;
16660;SDS011;8444;52.012;5.048;2023-01-09T13:31:58;9.57;;;1.53;;
16660;SDS011;8444;52.012;5.048;2023-01-09T13:34:29;11.37;;;2.50;;
16660;SDS011;8444;52.012;5.048;2023-01-09T13:36:55;8.53;;;1.57;;
16660;SDS011;8444;52.012;5.048;2023-01-09T13:39:22;6.83;;;1.10;;
16660;SDS011;8444;52.012;5.048;2023-01-09T13:41:50;5.10;;;1.40;;
16660;SDS011;8444;52.012;5.048;2023-01-09T13:44:46;10.67;;;2.33;;
16660;SDS011;8444;52.012;5.048;2023-01-09T13:57:17;13.27;;;3.13;;
16660;SDS011;8444;52.012;5.048;2023-01-09T13:59:48;17.97;;;2.37;;
16660;SDS011;8444;52.012;5.048;2023-01-09T14:04:57;3.67;;;1.63;;
16660;SDS011;8444;52.012;5.048;2023-01-09T14:07:23;6.37;;;1.80;;
16660;SDS011;8444;52.012;5.048;2023-01-09T14:09:53;6.60;;;1.80;;
16660;SDS011;8444;52.012;5.048;2023-01-09T14:12:19;14.10;;;1.53;;
16660;SDS011;8444;52.012;5.048;2023-01-09T14:14:45;5.40;;;1.50;;
16660;SDS011;8444;52.012;5.048;2023-01-09T14:17:21;14.93;;;2.57;;
16660;SDS011;8444;52.012;5.048;2023-01-09T14:19:51;7.07;;;1.87;;
16660;SDS011;8444;52.012;5.048;2023-01-09T14:22:24;8.87;;;1.90;;
16660;SDS011;8444;52.012;5.048;2023-01-09T14:24:49;7.17;;;1.70;;
16660;SDS011;8444;52.012;5.048;2023-01-09T14:32:44;8.97;;;1.67;;
16660;SDS011;8444;52.012;5.048;2023-01-09T14:35:14;8.73;;;2.07;;
16660;SDS011;8444;52.012;5.048;2023-01-09T14:37:41;5.03;;;1.50;;
16660;SDS011;8444;52.012;5.048;2023-01-09T14:40:07;10.40;;;4.10;;
16660;SDS011;8444;52.012;5.048;2023-01-09T14:42:39;8.37;;;2.00;;
16660;SDS011;8444;52.012;5.048;2023-01-09T14:45:16;14.33;;;2.93;;
16660;SDS011;8444;52.012;5.048;2023-01-09T14:47:44;8.87;;;1.70;;
16660;SDS011;8444;52.012;5.048;2023-01-09T14:50:32;13.17;;;2.20;;
16660;SDS011;8444;52.012;5.048;2023-01-09T14:55:55;11.47;;;1.83;;
16660;SDS011;8444;52.012;5.048;2023-01-09T14:58:32;7.77;;;1.63;;
16660;SDS011;8444;52.012;5.048;2023-01-09T15:01:00;11.10;;;1.80;;
16660;SDS011;8444;52.012;5.048;2023-01-09T15:03:28;8.57;;;2.00;;
16660;SDS011;8444;52.012;5.048;2023-01-09T15:05:54;8.57;;;2.00;;
16660;SDS011;8444;52.012;5.048;2023-01-09T15:08:21;10.77;;;2.27;;
16660;SDS011;8444;52.012;5.048;2023-01-09T15:10:48;9.63;;;1.93;;
16660;SDS011;8444;52.012;5.048;2023-01-09T15:13:15;6.80;;;2.20;;
16660;SDS011;8444;52.012;5.048;2023-01-09T15:15:45;11.83;;;2.50;;
16660;SDS011;8444;52.012;5.048;2023-01-09T15:18:15;8.77;;;2.10;;
16660;SDS011;8444;52.012;5.048;2023-01-09T15:20:41;6.33;;;1.70;;
16660;SDS011;8444;52.012;5.048;2023-01-09T15:23:18;5.53;;;1.20;;
16660;SDS011;8444;52.012;5.048;2023-01-09T15:25:44;9.30;;;2.47;;
16660;SDS011;8444;52.012;5.048;2023-01-09T15:28:23;8.67;;;1.87;;
16660;SDS011;8444;52.012;5.048;2023-01-09T15:30:53;5.33;;;1.80;;
16660;SDS011;8444;52.012;5.048;2023-01-09T15:33:19;13.97;;;3.13;;
16660;SDS011;8444;52.012;5.048;2023-01-09T15:35:45;7.93;;;2.23;;
16660;SDS011;8444;52.012;5.048;2023-01-09T15:38:12;11.10;;;4.23;;
16660;SDS011;8444;52.012;5.048;2023-01-09T15:40:38;6.97;;;2.77;;
16660;SDS011;8444;52.012;5.048;2023-01-09T15:43:03;8.37;;;2.23;;
16660;SDS011;8444;52.012;5.048;2023-01-09T15:45:32;10.70;;;2.30;;
16660;SDS011;8444;52.012;5.048;2023-01-09T15:48:18;5.23;;;1.70;;
16660;SDS011;8444;52.012;5.048;2023-01-09T15:50:44;14.00;;;1.70;;
16660;SDS011;8444;52.012;5.048;2023-01-09T15:53:18;9.90;;;1.70;;
16660;SDS011;8444;52.012;5.048;2023-01-09T15:55:44;6.87;;;2.23;;
16660;SDS011;8444;52.012;5.048;2023-01-09T16:03:36;5.73;;;1.30;;
16660;SDS011;8444;52.012;5.048;2023-01-09T16:06:06;8.80;;;1.77;;
16660;SDS011;8444;52.012;5.048;2023-01-09T16:08:33;6.90;;;1.60;;
16660;SDS011;8444;52.012;5.048;2023-01-09T16:11:06;8.80;;;1.87;;
16660;SDS011;8444;52.012;5.048;2023-01-09T16:13:32;8.00;;;1.67;;
16660;SDS011;8444;52.012;5.048;2023-01-09T16:15:59;5.47;;;1.70;;
16660;SDS011;8444;52.012;5.048;2023-01-09T16:18:29;4.83;;;1.47;;
16660;SDS011;8444;52.012;5.048;2023-01-09T16:23:35;14.37;;;1.60;;
16660;SDS011;8444;52.012;5.048;2023-01-09T16:26:05;8.97;;;1.83;;
16660;SDS011;8444;52.012;5.048;2023-01-09T16:28:30;7.63;;;1.73;;
16660;SDS011;8444;52.012;5.048;2023-01-09T16:30:57;7.67;;;1.93;;
16660;SDS011;8444;52.012;5.048;2023-01-09T16:33:24;6.73;;;1.13;;
16660;SDS011;8444;52.012;5.048;2023-01-09T16:35:50;8.83;;;1.50;;
16660;SDS011;8444;52.012;5.048;2023-01-09T16:38:15;5.43;;;1.53;;
16660;SDS011;8444;52.012;5.048;2023-01-09T16:43:43;8.47;;;1.90;;
16660;SDS011;8444;52.012;5.048;2023-01-09T16:46:08;7.47;;;1.60;;
16660;SDS011;8444;52.012;5.048;2023-01-09T16:48:34;4.10;;;1.60;;
16660;SDS011;8444;52.012;5.048;2023-01-09T16:50:59;4.57;;;1.10;;
16660;SDS011;8444;52.012;5.048;2023-01-09T16:53:24;3.93;;;1.00;;
16660;SDS011;8444;52.012;5.048;2023-01-09T16:55:51;2.07;;;1.10;;
16660;SDS011;8444;52.012;5.048;2023-01-09T16:58:18;3.57;;;1.47;;
16660;SDS011;8444;52.012;5.048;2023-01-09T17:00:45;4.70;;;1.90;;
16660;SDS011;8444;52.012;5.048;2023-01-09T17:03:15;4.27;;;1.60;;
16660;SDS011;8444;52.012;5.048;2023-01-09T17:05:40;3.33;;;1.33;;